createdAt,value
2022-12-12T00:00:35.568Z,7.60
2022-12-12T00:03:04.884Z,5.53
2022-12-12T00:05:32.160Z,7.05
2022-12-12T00:07:59.286Z,7.00
2022-12-12T00:10:26.284Z,8.68
2022-12-12T00:12:53.274Z,6.65
2022-12-12T00:15:20.321Z,6.40
2022-12-12T00:17:47.296Z,8.52
2022-12-12T00:20:14.351Z,6.40
2022-12-12T00:22:41.509Z,8.80
2022-12-12T00:25:08.741Z,5.97
2022-12-12T00:27:35.692Z,9.95
2022-12-12T00:30:02.702Z,9.00
2022-12-12T00:32:31.193Z,4.40
2022-12-12T00:34:58.158Z,10.93
2022-12-12T00:37:25.231Z,10.05
2022-12-12T00:39:52.660Z,7.35
2022-12-12T00:42:19.875Z,6.78
2022-12-12T00:44:46.899Z,9.48
2022-12-12T00:47:13.897Z,9.25
2022-12-12T00:49:41.082Z,11.50
2022-12-12T00:52:08.100Z,9.25
2022-12-12T00:54:35.036Z,8.07
2022-12-12T00:57:02.193Z,9.70
2022-12-12T00:59:29.573Z,7.72
2022-12-12T01:01:56.621Z,7.63
2022-12-12T01:04:23.859Z,6.15
2022-12-12T01:06:50.837Z,7.47
2022-12-12T01:09:17.820Z,6.55
2022-12-12T01:11:44.921Z,8.68
2022-12-12T01:14:11.935Z,6.85
2022-12-12T01:16:38.876Z,6.55
2022-12-12T01:19:05.880Z,6.45
2022-12-12T01:21:32.885Z,10.07
2022-12-12T01:23:59.962Z,8.52
2022-12-12T01:26:27.212Z,7.97
2022-12-12T01:28:54.219Z,10.68
2022-12-12T01:31:21.600Z,8.75
2022-12-12T01:33:49.005Z,6.93
2022-12-12T01:36:18.399Z,9.57
2022-12-12T01:38:50.298Z,9.38
2022-12-12T01:41:18.401Z,6.88
2022-12-12T01:43:45.890Z,7.05
2022-12-12T01:46:37.596Z,10.23
2022-12-12T01:49:16.846Z,8.18
2022-12-12T01:51:45.687Z,6.60
2022-12-12T01:54:17.054Z,8.55
2022-12-12T01:56:46.231Z,7.93
2022-12-12T01:59:16.393Z,7.07
2022-12-12T02:01:44.241Z,11.93
2022-12-12T02:04:13.183Z,8.32
2022-12-12T02:06:41.630Z,10.80
2022-12-12T02:09:12.332Z,8.70
2022-12-12T02:11:51.405Z,9.90
2022-12-12T02:14:25.636Z,8.52
2022-12-12T02:16:58.449Z,9.85
2022-12-12T02:19:54.631Z,8.52
2022-12-12T02:22:39.698Z,8.35
2022-12-12T02:25:12.956Z,9.43
2022-12-12T02:28:11.879Z,11.65
2022-12-12T02:30:57.523Z,8.27
2022-12-12T02:33:39.932Z,9.85
2022-12-12T02:36:37.501Z,13.40
2022-12-12T02:39:18.867Z,9.77
2022-12-12T02:41:59.976Z,10.25
2022-12-12T02:44:44.913Z,8.68
2022-12-12T02:47:24.169Z,9.65
2022-12-12T02:50:11.630Z,11.02
2022-12-12T02:52:39.031Z,7.20
2022-12-12T02:55:07.153Z,8.98
2022-12-12T02:57:34.080Z,9.18
2022-12-12T03:00:06.432Z,8.45
2022-12-12T03:02:51.596Z,9.32
2022-12-12T03:06:06.591Z,11.85
2022-12-12T03:08:55.087Z,13.13
2022-12-12T03:11:48.129Z,12.02
2022-12-12T03:14:35.333Z,5.50
2022-12-12T03:17:20.667Z,9.18
2022-12-12T03:20:17.243Z,11.05
2022-12-12T03:23:03.067Z,10.15
2022-12-12T03:25:41.445Z,10.65
2022-12-12T03:28:23.042Z,8.73
2022-12-12T03:30:55.596Z,6.90
2022-12-12T03:33:36.348Z,11.77
2022-12-12T03:36:26.872Z,9.90
2022-12-12T03:38:59.901Z,8.75
2022-12-12T03:41:39.286Z,6.95
2022-12-12T03:44:14.108Z,6.65
2022-12-12T03:47:03.809Z,8.50
2022-12-12T03:49:38.879Z,9.23
2022-12-12T03:52:29.988Z,6.50
2022-12-12T03:55:08.607Z,7.85
2022-12-12T03:57:59.578Z,5.45
2022-12-12T04:00:29.322Z,7.20
2022-12-12T04:03:11.730Z,7.03
2022-12-12T04:06:11.743Z,7.53
2022-12-12T04:08:39.634Z,11.82
2022-12-12T04:11:38.615Z,6.40
2022-12-12T04:14:24.317Z,7.05
2022-12-12T04:17:00.870Z,7.35
2022-12-12T04:20:03.357Z,6.70
2022-12-12T04:22:58.209Z,6.90
2022-12-12T04:26:12.941Z,5.25
2022-12-12T04:28:43.547Z,6.35
2022-12-12T04:31:14.231Z,4.97
2022-12-12T04:33:49.649Z,5.75
2022-12-12T04:36:20.053Z,6.88
2022-12-12T04:38:50.053Z,5.93
2022-12-12T04:41:20.252Z,6.82
2022-12-12T04:43:49.770Z,5.90
2022-12-12T04:46:21.558Z,6.57
2022-12-12T04:48:53.927Z,8.20
2022-12-12T04:51:29.126Z,6.13
2022-12-12T04:54:14.090Z,6.47
2022-12-12T04:56:44.616Z,5.82
2022-12-12T04:59:11.838Z,7.88
2022-12-12T05:01:51.184Z,6.70
2022-12-12T05:04:46.358Z,6.07
2022-12-12T05:07:39.768Z,9.55
2022-12-12T05:10:12.247Z,7.45
2022-12-12T05:12:46.094Z,10.25
2022-12-12T05:15:15.361Z,7.68
2022-12-12T05:17:48.235Z,5.90
2022-12-12T05:20:16.364Z,5.32
2022-12-12T05:22:43.415Z,9.13
2022-12-12T05:25:12.531Z,6.90
2022-12-12T05:27:39.821Z,9.30
2022-12-12T05:30:07.550Z,7.28
2022-12-12T05:32:34.658Z,9.07
2022-12-12T05:35:01.626Z,7.07
2022-12-12T05:37:28.747Z,6.30
2022-12-12T05:39:55.716Z,7.65
2022-12-12T05:42:22.895Z,5.88
2022-12-12T05:44:49.889Z,10.80
2022-12-12T05:47:18.942Z,8.32
2022-12-12T05:49:46.074Z,7.63
2022-12-12T05:52:13.327Z,7.72
2022-12-12T05:54:42.978Z,9.52
2022-12-12T05:57:10.019Z,9.65
2022-12-12T05:59:36.994Z,11.73
2022-12-12T06:02:04.120Z,8.25
2022-12-12T06:04:31.221Z,8.73
2022-12-12T06:06:58.714Z,6.38
2022-12-12T06:09:25.713Z,7.88
2022-12-12T06:11:52.751Z,5.80
2022-12-12T06:14:19.810Z,7.70
2022-12-12T06:16:46.857Z,7.30
2022-12-12T06:19:13.965Z,7.63
2022-12-12T06:21:40.990Z,9.63
2022-12-12T06:24:08.329Z,7.63
2022-12-12T06:26:35.342Z,6.78
2022-12-12T06:29:02.387Z,6.90
2022-12-12T06:31:29.439Z,7.97
2022-12-12T06:33:56.677Z,6.72
2022-12-12T06:36:25.382Z,10.07
2022-12-12T06:38:58.337Z,8.18
2022-12-12T06:41:28.409Z,13.85
2022-12-12T06:43:55.740Z,6.53
2022-12-12T06:46:26.617Z,6.10
2022-12-12T06:48:55.417Z,6.00
2022-12-12T06:51:29.130Z,5.45
2022-12-12T06:53:57.000Z,5.10
2022-12-12T06:56:26.639Z,5.30
2022-12-12T06:58:54.922Z,5.20
2022-12-12T07:01:23.944Z,6.85
2022-12-12T07:03:52.354Z,5.05
2022-12-12T07:06:21.590Z,5.28
2022-12-12T07:08:49.329Z,7.40
2022-12-12T07:11:22.301Z,5.32
2022-12-12T07:13:49.548Z,7.05
2022-12-12T07:16:16.955Z,6.53
2022-12-12T07:18:44.065Z,6.60
2022-12-12T07:21:15.394Z,6.03
2022-12-12T07:23:43.126Z,7.45
2022-12-12T07:26:21.158Z,11.95
2022-12-12T07:28:49.053Z,9.13
2022-12-12T07:31:19.902Z,7.18
2022-12-12T07:33:47.504Z,5.72
2022-12-12T07:36:16.353Z,6.00
2022-12-12T07:38:44.260Z,7.53
2022-12-12T07:41:14.299Z,8.20
2022-12-12T07:43:44.716Z,5.60
2022-12-12T07:46:17.727Z,6.18
2022-12-12T07:48:45.112Z,4.90
2022-12-12T07:51:13.010Z,7.70
2022-12-12T07:53:40.087Z,6.82
2022-12-12T07:56:09.390Z,6.07
2022-12-12T07:58:37.555Z,5.60
2022-12-12T08:01:18.277Z,7.40
2022-12-12T08:03:47.284Z,7.05
2022-12-12T08:06:19.078Z,6.82
2022-12-12T08:08:47.692Z,5.45
2022-12-12T08:11:17.113Z,12.85
2022-12-12T08:13:44.283Z,7.60
2022-12-12T08:16:17.896Z,6.18
2022-12-12T08:18:45.819Z,8.15
2022-12-12T08:21:18.710Z,11.18
2022-12-12T08:23:50.154Z,6.00
2022-12-12T08:26:18.321Z,7.88
2022-12-12T08:28:49.540Z,14.48
2022-12-12T08:31:17.823Z,7.57
2022-12-12T08:33:45.488Z,8.63
2022-12-12T08:36:14.075Z,7.15
2022-12-12T08:38:41.525Z,5.97
2022-12-12T08:41:11.009Z,9.10
2022-12-12T08:43:39.337Z,8.05
2022-12-12T08:46:13.713Z,5.65
2022-12-12T08:48:44.130Z,8.00
2022-12-12T08:51:11.153Z,8.88
2022-12-12T08:53:38.202Z,4.47
2022-12-12T08:56:05.532Z,6.78
2022-12-12T08:58:32.591Z,9.57
2022-12-12T09:00:59.534Z,4.40
2022-12-12T09:03:29.485Z,7.10
2022-12-12T09:05:56.853Z,6.50
2022-12-12T09:08:24.672Z,7.63
2022-12-12T09:10:52.026Z,6.60
2022-12-12T09:13:20.869Z,15.07
2022-12-12T09:15:51.529Z,7.55
2022-12-12T09:18:19.993Z,8.15
2022-12-12T09:20:51.293Z,7.70
2022-12-12T09:23:19.707Z,8.40
2022-12-12T09:25:47.318Z,8.05
2022-12-12T09:28:16.703Z,5.75
2022-12-12T09:30:44.203Z,9.50
2022-12-12T09:33:12.393Z,6.70
2022-12-12T09:35:40.039Z,7.00
2022-12-12T09:38:12.552Z,8.15
2022-12-12T09:41:18.697Z,6.53
2022-12-12T09:44:18.781Z,7.30
2022-12-12T09:47:02.798Z,7.43
2022-12-12T09:49:49.595Z,5.03
2022-12-12T09:52:26.423Z,5.22
2022-12-12T09:54:59.491Z,5.18
2022-12-12T09:57:31.280Z,6.78
2022-12-12T10:00:10.043Z,5.97
2022-12-12T10:03:05.387Z,8.40
2022-12-12T10:06:13.432Z,7.80
2022-12-12T10:09:01.530Z,4.18
2022-12-12T10:11:50.738Z,13.43
2022-12-12T10:14:34.596Z,3.88
2022-12-12T10:17:06.222Z,4.90
2022-12-12T10:19:41.982Z,5.20
2022-12-12T10:22:24.077Z,6.57
2022-12-12T10:24:58.260Z,4.90
2022-12-12T10:27:25.445Z,5.95
2022-12-12T10:29:54.211Z,3.20
2022-12-12T10:32:40.054Z,4.22
2022-12-12T10:35:30.472Z,6.03
2022-12-12T10:38:04.568Z,5.47
2022-12-12T10:40:46.691Z,6.22
2022-12-12T10:43:22.794Z,4.65
2022-12-12T10:46:00.991Z,4.32
2022-12-12T10:48:29.845Z,4.95
2022-12-12T10:51:02.156Z,4.63
2022-12-12T10:53:30.401Z,4.85
2022-12-12T10:56:00.207Z,5.20
2022-12-12T10:58:35.556Z,4.88
2022-12-12T11:01:10.463Z,5.30
2022-12-12T11:03:45.628Z,5.78
2022-12-12T11:06:29.572Z,4.00
2022-12-12T11:09:06.498Z,5.38
2022-12-12T11:11:33.596Z,6.45
2022-12-12T11:14:20.900Z,4.68
2022-12-12T11:16:47.908Z,2.78
2022-12-12T11:19:17.916Z,4.50
2022-12-12T11:21:46.075Z,6.50
2022-12-12T11:24:16.540Z,2.88
2022-12-12T11:26:49.209Z,4.65
2022-12-12T11:29:34.887Z,3.72
2022-12-12T11:32:03.710Z,4.63
2022-12-12T11:34:34.119Z,3.13
2022-12-12T11:37:02.129Z,5.05
2022-12-12T11:39:40.884Z,4.50
2022-12-12T11:42:13.649Z,2.75
2022-12-12T11:44:42.299Z,3.38
2022-12-12T11:47:41.151Z,5.22
2022-12-12T11:50:23.778Z,4.22
2022-12-12T11:52:57.018Z,3.45
2022-12-12T11:55:53.552Z,4.03
2022-12-12T11:58:28.005Z,4.47
2022-12-12T12:01:13.157Z,2.58
2022-12-12T12:04:04.931Z,2.30
2022-12-12T12:06:47.241Z,2.35
2022-12-12T12:09:31.674Z,2.40
2022-12-12T12:12:06.543Z,3.45
2022-12-12T12:14:58.578Z,3.17
2022-12-12T12:17:55.490Z,2.55
2022-12-12T12:20:40.289Z,3.72
2022-12-12T12:23:29.033Z,3.50
2022-12-12T12:26:14.534Z,3.72
2022-12-12T12:28:59.978Z,3.05
2022-12-12T12:31:38.978Z,3.80
2022-12-12T12:34:27.647Z,2.03
2022-12-12T12:37:04.139Z,3.13
2022-12-12T12:39:52.612Z,14.18
2022-12-12T12:42:28.702Z,2.00
2022-12-12T12:45:05.980Z,4.40
2022-12-12T12:47:49.281Z,2.40
2022-12-12T12:50:51.625Z,5.55
2022-12-12T12:53:40.839Z,4.30
2022-12-12T12:56:25.101Z,3.05
2022-12-12T12:58:55.417Z,4.90
2022-12-12T13:01:33.119Z,5.53
2022-12-12T13:04:15.083Z,2.55
2022-12-12T13:07:10.671Z,4.47
2022-12-12T13:09:52.003Z,3.10
2022-12-12T13:12:34.808Z,4.15
2022-12-12T13:15:07.541Z,9.23
2022-12-12T13:17:52.079Z,3.55
2022-12-12T13:20:22.911Z,2.42
2022-12-12T13:22:56.011Z,3.08
2022-12-12T13:25:50.218Z,3.35
2022-12-12T13:28:28.244Z,4.07
2022-12-12T13:31:13.631Z,3.67
2022-12-12T13:33:46.558Z,6.00
2022-12-12T13:36:17.385Z,3.70
2022-12-12T13:38:51.983Z,3.05
2022-12-12T13:41:19.104Z,3.58
2022-12-12T13:43:57.189Z,3.60
2022-12-12T13:46:27.649Z,4.50
2022-12-12T13:49:00.654Z,4.28
2022-12-12T13:51:27.804Z,3.30
2022-12-12T13:54:11.992Z,2.30
2022-12-12T13:56:47.913Z,2.67
2022-12-12T13:59:25.309Z,3.25
2022-12-12T14:02:03.714Z,3.92
2022-12-12T14:04:35.060Z,15.75
2022-12-12T14:07:14.898Z,5.80
2022-12-12T14:09:48.752Z,10.73
2022-12-12T14:12:17.986Z,4.65
2022-12-12T14:14:57.653Z,3.05
2022-12-12T14:17:26.642Z,3.38
2022-12-12T14:19:56.010Z,4.22
2022-12-12T14:22:49.777Z,9.48
2022-12-12T14:25:19.458Z,3.55
2022-12-12T14:27:49.472Z,8.23
2022-12-12T14:30:45.832Z,7.05
2022-12-12T14:33:18.731Z,4.75
2022-12-12T14:35:59.109Z,1.85
2022-12-12T14:38:41.315Z,6.78
2022-12-12T14:41:16.572Z,4.60
2022-12-12T14:44:37.860Z,3.85
2022-12-12T14:46:42.618Z,5.18
2022-12-12T14:49:16.009Z,5.07
2022-12-12T14:51:49.785Z,2.72
2022-12-12T14:54:22.429Z,4.28
2022-12-12T14:56:59.671Z,5.78
2022-12-12T14:59:33.795Z,5.00
2022-12-12T15:02:13.722Z,4.45
2022-12-12T15:04:45.286Z,4.38
2022-12-12T15:07:29.632Z,8.13
2022-12-12T15:09:57.040Z,4.53
2022-12-12T15:12:26.738Z,7.00
2022-12-12T15:14:55.184Z,7.55
2022-12-12T15:17:48.924Z,7.43
2022-12-12T15:20:20.383Z,8.02
2022-12-12T15:22:55.023Z,7.57
2022-12-12T15:25:26.362Z,6.72
2022-12-12T15:27:56.349Z,6.93
2022-12-12T15:30:37.224Z,8.93
2022-12-12T15:33:06.900Z,7.28
2022-12-12T15:35:34.575Z,8.30
2022-12-12T15:38:07.837Z,7.47
2022-12-12T15:40:36.467Z,7.15
2022-12-12T15:43:14.864Z,5.47
2022-12-12T15:45:55.099Z,5.95
2022-12-12T15:48:23.728Z,7.03
2022-12-12T15:50:53.682Z,7.75
2022-12-12T15:53:34.379Z,9.88
2022-12-12T15:56:11.745Z,9.65
2022-12-12T15:58:44.575Z,7.00
2022-12-12T16:01:20.120Z,10.38
2022-12-12T16:04:24.265Z,9.60
2022-12-12T16:06:51.473Z,7.88
2022-12-12T16:09:23.154Z,10.10
2022-12-12T16:11:51.398Z,10.63
2022-12-12T16:14:27.501Z,10.93
2022-12-12T16:16:58.538Z,8.18
2022-12-12T16:19:41.405Z,10.02
2022-12-12T16:22:36.911Z,9.50
2022-12-12T16:25:21.379Z,11.23
2022-12-12T16:28:12.758Z,9.80
2022-12-12T16:30:42.099Z,12.07
2022-12-12T16:33:28.234Z,11.05
2022-12-12T16:35:56.557Z,8.73
2022-12-12T16:38:24.042Z,12.68
2022-12-12T16:40:53.792Z,10.15
2022-12-12T16:43:22.660Z,11.20
2022-12-12T16:45:52.128Z,10.32
2022-12-12T16:48:25.045Z,10.30
2022-12-12T16:50:57.367Z,12.40
2022-12-12T16:53:24.643Z,9.45
2022-12-12T16:55:52.726Z,9.40
2022-12-12T16:58:22.762Z,10.52
2022-12-12T17:00:54.822Z,10.50
2022-12-12T17:03:25.740Z,10.35
2022-12-12T17:05:53.579Z,12.68
2022-12-12T17:08:20.695Z,10.95
2022-12-12T17:10:49.991Z,13.05
2022-12-12T17:13:19.850Z,9.02
2022-12-12T17:15:46.889Z,15.32
2022-12-12T17:18:13.896Z,11.93
2022-12-12T17:20:42.056Z,13.20
2022-12-12T17:23:30.297Z,14.00
2022-12-12T17:26:03.489Z,12.18
2022-12-12T17:28:34.084Z,13.02
2022-12-12T17:31:01.972Z,15.35
2022-12-12T17:33:29.313Z,10.90
2022-12-12T17:36:01.457Z,10.48
2022-12-12T17:38:30.913Z,12.25
2022-12-12T17:40:58.920Z,9.40
2022-12-12T17:43:26.339Z,12.48
2022-12-12T17:46:05.528Z,10.20
2022-12-12T17:48:39.701Z,9.77
2022-12-12T17:51:08.994Z,13.30
2022-12-12T17:53:40.344Z,13.20
2022-12-12T17:56:09.055Z,10.30
2022-12-12T17:58:37.939Z,14.38
2022-12-12T18:01:19.066Z,13.93
2022-12-12T18:03:47.656Z,12.77
2022-12-12T18:06:16.873Z,11.15
2022-12-12T18:08:45.662Z,11.35
2022-12-12T18:11:17.126Z,13.93
2022-12-12T18:13:48.311Z,10.20
2022-12-12T18:16:16.424Z,11.60
2022-12-12T18:18:44.253Z,11.23
2022-12-12T18:21:35.905Z,14.95
2022-12-12T18:24:04.779Z,14.30
2022-12-12T18:26:32.299Z,11.00
2022-12-12T18:29:02.144Z,9.52
2022-12-12T18:31:29.899Z,9.02
2022-12-12T18:33:57.687Z,12.27
2022-12-12T18:36:28.167Z,11.00
2022-12-12T18:39:00.873Z,15.15
2022-12-12T18:41:29.133Z,11.38
2022-12-12T18:43:56.819Z,10.48
2022-12-12T18:46:26.960Z,9.60
2022-12-12T18:48:54.764Z,13.68
2022-12-12T18:51:25.040Z,10.38
2022-12-12T18:53:55.124Z,15.70
2022-12-12T18:56:26.098Z,8.40
2022-12-12T18:58:55.575Z,10.48
2022-12-12T19:01:26.560Z,11.73
2022-12-12T19:03:59.255Z,6.88
2022-12-12T19:06:34.532Z,10.63
2022-12-12T19:09:06.731Z,12.93
2022-12-12T19:11:36.434Z,12.13
2022-12-12T19:14:04.019Z,8.93
2022-12-12T19:16:35.578Z,9.40
2022-12-12T19:19:05.647Z,9.93
2022-12-12T19:21:35.021Z,14.23
2022-12-12T19:24:04.018Z,9.50
2022-12-12T19:26:32.039Z,10.10
2022-12-12T19:29:04.179Z,14.32
2022-12-12T19:31:36.290Z,10.68
2022-12-12T19:34:06.697Z,10.90
2022-12-12T19:36:35.991Z,10.15
2022-12-12T19:39:06.385Z,8.82
2022-12-12T19:41:36.682Z,12.68
2022-12-12T19:44:05.484Z,10.23
2022-12-12T19:46:35.166Z,10.05
2022-12-12T19:49:06.346Z,10.05
2022-12-12T19:51:37.500Z,11.48
2022-12-12T19:54:14.090Z,8.02
2022-12-12T19:56:42.262Z,10.48
2022-12-12T19:59:13.223Z,7.75
2022-12-12T20:01:42.162Z,8.25
2022-12-12T20:04:17.076Z,9.95
2022-12-12T20:06:46.720Z,11.90
2022-12-12T20:09:17.192Z,12.65
2022-12-12T20:11:48.321Z,13.23
2022-12-12T20:14:19.868Z,14.30
2022-12-12T20:16:48.595Z,10.70
2022-12-12T20:19:17.324Z,11.70
2022-12-12T20:22:03.863Z,9.77
2022-12-12T20:24:34.112Z,12.75
2022-12-12T20:27:04.313Z,10.68
2022-12-12T20:29:35.817Z,10.85
2022-12-12T20:32:04.650Z,11.25
2022-12-12T20:34:31.968Z,15.18
2022-12-12T20:37:01.283Z,14.07
2022-12-12T20:39:29.665Z,10.07
2022-12-12T20:41:58.692Z,12.30
2022-12-12T20:44:26.307Z,10.32
2022-12-12T20:46:53.945Z,12.02
2022-12-12T20:49:23.380Z,10.55
2022-12-12T20:51:55.894Z,11.27
2022-12-12T20:54:27.010Z,13.77
2022-12-12T20:56:55.499Z,11.00
2022-12-12T20:59:24.233Z,12.43
2022-12-12T21:01:52.261Z,12.27
2022-12-12T21:04:20.267Z,11.68
2022-12-12T21:06:49.785Z,10.40
2022-12-12T21:09:24.430Z,12.15
2022-12-12T21:11:58.375Z,10.65
2022-12-12T21:14:27.760Z,10.70
2022-12-12T21:16:55.440Z,9.30
2022-12-12T21:19:23.944Z,10.05
2022-12-12T21:21:51.300Z,10.02
2022-12-12T21:24:19.406Z,13.85
2022-12-12T21:26:47.903Z,11.98
2022-12-12T21:29:15.741Z,17.38
2022-12-12T21:31:50.345Z,13.50
2022-12-12T21:34:19.891Z,12.90
2022-12-12T21:36:49.608Z,10.00
2022-12-12T21:39:16.585Z,11.82
2022-12-12T21:41:44.139Z,9.30
2022-12-12T21:44:11.329Z,10.25
2022-12-12T21:46:42.054Z,11.80
2022-12-12T21:49:28.432Z,11.73
2022-12-12T21:51:58.137Z,12.27
2022-12-12T21:54:26.183Z,8.18
2022-12-12T21:56:53.382Z,12.70
2022-12-12T21:59:20.459Z,11.95
2022-12-12T22:01:47.555Z,14.63
2022-12-12T22:04:14.886Z,12.85
2022-12-12T22:06:44.173Z,10.10
2022-12-12T22:09:12.407Z,13.48
2022-12-12T22:11:49.432Z,10.13
2022-12-12T22:14:21.981Z,11.18
2022-12-12T22:16:50.360Z,14.40
2022-12-12T22:19:18.172Z,13.30
2022-12-12T22:21:48.962Z,12.85
2022-12-12T22:24:17.366Z,11.50
2022-12-12T22:26:48.901Z,14.73
2022-12-12T22:29:18.805Z,13.93
2022-12-12T22:31:46.427Z,13.30
2022-12-12T22:34:19.899Z,13.25
2022-12-12T22:36:47.703Z,12.00
2022-12-12T22:39:24.259Z,9.57
2022-12-12T22:41:52.092Z,14.65
2022-12-12T22:44:21.520Z,9.80
2022-12-12T22:46:50.477Z,13.20
2022-12-12T22:49:21.211Z,14.23
2022-12-12T22:51:49.733Z,13.52
2022-12-12T22:54:17.350Z,9.82
2022-12-12T22:56:45.774Z,14.80
2022-12-12T22:59:14.321Z,13.20
2022-12-12T23:01:42.170Z,12.40
2022-12-12T23:04:14.472Z,14.77
2022-12-12T23:06:42.760Z,12.27
2022-12-12T23:09:19.152Z,13.57
2022-12-12T23:11:46.260Z,13.65
2022-12-12T23:14:16.400Z,11.35
2022-12-12T23:16:44.943Z,13.00
2022-12-12T23:19:15.248Z,11.10
2022-12-12T23:21:42.386Z,10.48
2022-12-12T23:24:10.587Z,14.10
2022-12-12T23:26:37.936Z,10.57
2022-12-12T23:29:10.370Z,13.15
2022-12-12T23:31:39.085Z,9.57
2022-12-12T23:34:10.263Z,11.27
2022-12-12T23:36:38.382Z,10.77
2022-12-12T23:39:08.116Z,20.00
2022-12-12T23:41:36.944Z,10.10
2022-12-12T23:44:05.047Z,11.40
2022-12-12T23:46:32.515Z,11.23
2022-12-12T23:49:24.615Z,11.85
2022-12-12T23:51:55.924Z,12.20
2022-12-12T23:54:27.440Z,12.85
2022-12-12T23:56:55.209Z,15.63
2022-12-12T23:59:22.216Z,12.73
